Time;durP1;ratioP1;P1;durP2;ratioP2;P2;SDS_P1;SDS_P2;PMS_P1;PMS_P2;Temp;Humidity;BMP_temperature;BMP_pressure;BME280_temperature;BME280_humidity;BME280_pressure;Samples;Min_cycle;Max_cycle;Signal;HPM_P1;HPM_P2
2021/12/17 00:00:58;;;;;;;7.03;2.90;;;;;;;;;;4989913;28;20324;-67
2021/12/17 00:03:35;;;;;;;7.78;3.25;;;;;;;;;;4973784;28;20107;-66
2021/12/17 00:08:37;;;;;;;8.07;3.20;;;;;;;;;;4988536;28;20044;-66
2021/12/17 00:11:04;;;;;;;6.00;3.15;;;;;;;;;;5005385;28;20349;-67
2021/12/17 00:13:29;;;;;;;8.32;3.38;;;;;;;;;;4990497;28;20017;-66
2021/12/17 00:15:55;;;;;;;6.68;3.58;;;;;;;;;;4990777;28;20029;-67
2021/12/17 00:18:31;;;;;;;8.27;3.40;;;;;;;;;;4990705;28;20510;-66
2021/12/17 00:43:53;;;;;;;8.70;3.50;;;;;;;;;;4975670;28;20372;-66
2021/12/17 00:48:40;;;;;;;8.63;3.22;;;;;;;;;;4990711;28;20402;-66
2021/12/17 00:53:35;;;;;;;10.50;3.35;;;;;;;;;;4990026;28;20458;-66
2021/12/17 00:56:00;;;;;;;7.65;2.97;;;;;;;;;;4990512;28;20343;-66
2021/12/17 00:58:26;;;;;;;10.30;2.70;;;;;;;;;;4989529;28;20425;-66
2021/12/17 01:00:51;;;;;;;10.48;3.30;;;;;;;;;;4986006;28;20298;-70
2021/12/17 01:03:16;;;;;;;7.85;3.30;;;;;;;;;;4960334;28;20380;-66
2021/12/17 01:05:43;;;;;;;7.32;2.90;;;;;;;;;;4970169;28;20432;-66
2021/12/17 01:08:08;;;;;;;7.53;2.85;;;;;;;;;;4951383;28;20476;-66
2021/12/17 01:10:38;;;;;;;7.57;3.10;;;;;;;;;;4951024;28;20120;-66
2021/12/17 01:13:06;;;;;;;6.60;3.10;;;;;;;;;;4969102;28;20452;-66
2021/12/17 01:15:32;;;;;;;5.22;2.78;;;;;;;;;;4952440;28;20383;-66
2021/12/17 01:18:03;;;;;;;9.85;3.70;;;;;;;;;;4970020;28;20330;-66
2021/12/17 01:21:04;;;;;;;6.63;3.35;;;;;;;;;;4969831;28;20423;-66
2021/12/17 01:40:49;;;;;;;6.70;2.97;;;;;;;;;;4968951;28;20494;-66
2021/12/17 01:42:36;;;;;;;8.95;3.03;;;;;;;;;;4969001;28;20531;-67
2021/12/17 01:45:02;;;;;;;5.10;2.63;;;;;;;;;;4970118;28;20565;-67
2021/12/17 01:47:27;;;;;;;8.50;3.55;;;;;;;;;;4968923;28;20345;-67
2021/12/17 02:00:50;;;;;;;8.07;2.80;;;;;;;;;;4954390;28;20403;-66
2021/12/17 02:03:16;;;;;;;4.78;2.80;;;;;;;;;;4968861;28;20391;-67
2021/12/17 02:05:43;;;;;;;6.28;2.45;;;;;;;;;;4952104;28;20490;-66
2021/12/17 02:08:09;;;;;;;7.60;2.63;;;;;;;;;;4968497;28;20396;-67
2021/12/17 02:32:02;;;;;;;5.15;2.33;;;;;;;;;;4968201;28;20372;-66
2021/12/17 02:35:03;;;;;;;4.05;2.05;;;;;;;;;;4952144;28;20424;-66
2021/12/17 02:37:31;;;;;;;7.15;2.88;;;;;;;;;;4955703;28;20502;-66
2021/12/17 02:42:23;;;;;;;4.40;1.88;;;;;;;;;;4969333;28;20333;-67
2021/12/17 02:47:59;;;;;;;6.40;2.42;;;;;;;;;;4968187;28;20351;-66
2021/12/17 02:50:25;;;;;;;6.80;2.53;;;;;;;;;;4967943;28;20025;-66
2021/12/17 02:52:53;;;;;;;8.00;2.60;;;;;;;;;;4968425;28;20437;-67
2021/12/17 02:55:20;;;;;;;7.07;2.58;;;;;;;;;;4968164;28;20456;-66
2021/12/17 02:57:45;;;;;;;6.38;2.30;;;;;;;;;;4966570;28;20380;-70
2021/12/17 03:00:11;;;;;;;4.68;2.25;;;;;;;;;;4968068;28;20420;-66
2021/12/17 03:02:38;;;;;;;5.13;2.45;;;;;;;;;;4968187;28;20547;-67
2021/12/17 03:05:05;;;;;;;5.95;1.70;;;;;;;;;;4950602;28;20349;-66
2021/12/17 03:07:34;;;;;;;5.70;2.50;;;;;;;;;;4950995;28;20337;-66
2021/12/17 03:10:04;;;;;;;6.03;2.67;;;;;;;;;;4950610;28;20479;-67
2021/12/17 03:12:41;;;;;;;4.25;2.15;;;;;;;;;;4968156;28;20053;-66
2021/12/17 03:15:23;;;;;;;6.75;2.70;;;;;;;;;;4968080;28;20514;-66
2021/12/17 03:23:39;;;;;;;5.93;2.60;;;;;;;;;;4968909;28;20456;-66
2021/12/17 03:26:06;;;;;;;10.77;2.25;;;;;;;;;;4968739;28;20345;-66
2021/12/17 03:28:33;;;;;;;9.05;2.85;;;;;;;;;;4967804;28;20021;-67
2021/12/17 03:30:59;;;;;;;8.30;3.08;;;;;;;;;;4949667;28;20410;-66
2021/12/17 03:33:24;;;;;;;4.55;2.35;;;;;;;;;;4950341;28;20383;-66
2021/12/17 03:35:50;;;;;;;4.45;2.47;;;;;;;;;;4970987;28;20345;-66
2021/12/17 03:38:16;;;;;;;3.55;1.90;;;;;;;;;;4971225;28;20476;-67
2021/12/17 03:40:42;;;;;;;5.32;2.50;;;;;;;;;;4971281;28;20053;-66
2021/12/17 03:43:21;;;;;;;6.15;2.17;;;;;;;;;;4973624;28;20393;-66
2021/12/17 03:45:47;;;;;;;6.22;2.88;;;;;;;;;;4971254;28;20425;-66
2021/12/17 03:48:12;;;;;;;5.07;2.20;;;;;;;;;;4953930;28;20397;-66
2021/12/17 03:50:37;;;;;;;8.13;2.70;;;;;;;;;;4953819;28;20464;-67
2021/12/17 03:53:04;;;;;;;6.13;1.80;;;;;;;;;;4953308;28;20344;-66
2021/12/17 03:55:30;;;;;;;6.65;2.08;;;;;;;;;;4953862;28;20336;-66
2021/12/17 03:57:58;;;;;;;6.57;2.00;;;;;;;;;;4972945;28;20368;-66
2021/12/17 04:00:24;;;;;;;8.00;2.05;;;;;;;;;;4970951;28;20375;-66
2021/12/17 04:02:49;;;;;;;3.97;2.17;;;;;;;;;;4953337;28;20404;-66
2021/12/17 04:05:15;;;;;;;2.47;1.63;;;;;;;;;;4971247;28;20091;-67
2021/12/17 04:07:40;;;;;;;8.85;2.65;;;;;;;;;;4970532;28;20492;-66
2021/12/17 04:10:06;;;;;;;4.55;1.98;;;;;;;;;;4971131;28;20326;-66
2021/12/17 04:12:58;;;;;;;4.30;2.22;;;;;;;;;;4972047;28;20056;-66
2021/12/17 04:15:17;;;;;;;3.40;2.22;;;;;;;;;;4971030;28;20188;-67
2021/12/17 04:17:53;;;;;;;5.28;2.35;;;;;;;;;;4970346;28;20445;-66
2021/12/17 04:20:19;;;;;;;6.18;1.90;;;;;;;;;;4954779;28;20340;-66
2021/12/17 04:22:44;;;;;;;5.45;2.20;;;;;;;;;;4970395;28;20376;-66
2021/12/17 04:25:10;;;;;;;4.78;1.90;;;;;;;;;;4970544;28;20021;-66
2021/12/17 04:27:35;;;;;;;6.30;2.20;;;;;;;;;;4952863;28;20391;-66
2021/12/17 04:30:01;;;;;;;2.20;1.38;;;;;;;;;;4970465;28;20524;-67
2021/12/17 04:32:26;;;;;;;5.78;2.22;;;;;;;;;;4970202;28;20507;-66
2021/12/17 04:34:52;;;;;;;5.22;2.28;;;;;;;;;;4971708;28;20052;-66
2021/12/17 04:37:17;;;;;;;4.18;1.80;;;;;;;;;;4971589;28;20037;-66
2021/12/17 04:39:43;;;;;;;7.40;2.20;;;;;;;;;;4970282;28;20579;-66
2021/12/17 04:42:16;;;;;;;5.68;1.85;;;;;;;;;;4969963;28;20452;-67
2021/12/17 04:44:49;;;;;;;4.93;1.95;;;;;;;;;;4971175;28;20499;-66
2021/12/17 04:57:56;;;;;;;5.90;2.00;;;;;;;;;;4970815;28;20456;-66
2021/12/17 05:00:27;;;;;;;5.88;2.35;;;;;;;;;;4971269;28;20044;-66
2021/12/17 05:02:56;;;;;;;4.70;2.30;;;;;;;;;;4970598;28;20037;-67
2021/12/17 05:05:28;;;;;;;6.60;2.03;;;;;;;;;;4969909;28;20119;-66
2021/12/17 05:08:05;;;;;;;5.70;2.17;;;;;;;;;;4952460;28;20528;-66
2021/12/17 05:10:53;;;;;;;5.53;1.98;;;;;;;;;;4970041;28;20042;-66
2021/12/17 05:19:48;;;;;;;3.72;1.90;;;;;;;;;;4970876;28;20522;-66
2021/12/17 05:21:38;;;;;;;5.30;1.90;;;;;;;;;;4956283;28;20060;-66
2021/12/17 05:24:04;;;;;;;5.68;1.67;;;;;;;;;;4969929;28;20424;-66
2021/12/17 05:26:29;;;;;;;3.85;1.95;;;;;;;;;;4952503;28;20060;-66
2021/12/17 05:28:55;;;;;;;3.95;1.90;;;;;;;;;;4970050;28;20400;-66
2021/12/17 05:31:21;;;;;;;6.50;2.03;;;;;;;;;;4951982;28;20467;-66
2021/12/17 05:33:48;;;;;;;6.85;2.25;;;;;;;;;;4969436;28;20017;-66
2021/12/17 05:36:14;;;;;;;5.07;1.95;;;;;;;;;;4969388;28;20345;-66
2021/12/17 05:38:39;;;;;;;5.97;1.77;;;;;;;;;;4969855;28;20419;-68
2021/12/17 05:41:04;;;;;;;4.93;2.00;;;;;;;;;;4970642;28;20448;-69
2021/12/17 05:43:35;;;;;;;4.72;2.42;;;;;;;;;;4969768;28;20360;-68
2021/12/17 05:48:26;;;;;;;6.20;2.40;;;;;;;;;;4969598;28;20334;-66
2021/12/17 05:50:58;;;;;;;4.78;1.98;;;;;;;;;;4951380;28;20030;-66
2021/12/17 05:53:23;;;;;;;3.33;2.20;;;;;;;;;;4952325;28;20440;-66
2021/12/17 05:55:49;;;;;;;5.07;2.38;;;;;;;;;;4969650;28;20503;-66
2021/12/17 05:58:14;;;;;;;6.03;1.92;;;;;;;;;;4969714;28;20506;-66
2021/12/17 06:00:41;;;;;;;6.22;2.33;;;;;;;;;;4969823;28;20673;-66
2021/12/17 06:03:07;;;;;;;2.90;1.48;;;;;;;;;;4951633;28;20432;-65
2021/12/17 06:05:33;;;;;;;5.30;2.08;;;;;;;;;;4969333;28;20526;-65
2021/12/17 06:07:59;;;;;;;4.68;1.95;;;;;;;;;;4951776;28;20463;-65
2021/12/17 06:10:26;;;;;;;3.92;1.77;;;;;;;;;;4969587;28;20464;-66
2021/12/17 06:12:52;;;;;;;3.30;1.52;;;;;;;;;;4951674;28;20352;-66
2021/12/17 06:15:18;;;;;;;2.55;1.58;;;;;;;;;;4969117;28;20111;-66
2021/12/17 06:17:44;;;;;;;4.80;1.70;;;;;;;;;;4970473;28;20386;-65
2021/12/17 06:20:11;;;;;;;4.53;2.05;;;;;;;;;;4951404;28;20025;-66
2021/12/17 06:22:37;;;;;;;5.68;1.67;;;;;;;;;;4969087;28;20436;-66
2021/12/17 06:25:04;;;;;;;3.72;1.95;;;;;;;;;;4969681;28;20049;-66
2021/12/17 06:27:30;;;;;;;4.53;1.95;;;;;;;;;;4952373;28;20108;-66
2021/12/17 06:29:55;;;;;;;2.88;1.73;;;;;;;;;;4968932;28;20025;-66
2021/12/17 06:32:21;;;;;;;4.07;1.83;;;;;;;;;;4968725;28;20041;-66
2021/12/17 06:34:47;;;;;;;4.60;1.63;;;;;;;;;;4952433;28;20321;-65
2021/12/17 06:37:15;;;;;;;5.00;2.22;;;;;;;;;;4951505;28;20514;-66
2021/12/17 06:39:41;;;;;;;5.93;2.08;;;;;;;;;;4969109;28;20617;-66
2021/12/17 06:42:07;;;;;;;4.70;1.95;;;;;;;;;;4968937;28;20348;-66
2021/12/17 06:44:32;;;;;;;4.85;2.17;;;;;;;;;;4951041;28;20436;-66
2021/12/17 06:47:09;;;;;;;4.70;1.95;;;;;;;;;;4968407;28;20503;-66
2021/12/17 06:55:22;;;;;;;8.20;2.30;;;;;;;;;;4971147;28;20506;-65
2021/12/17 07:05:59;;;;;;;4.72;2.22;;;;;;;;;;4968970;28;20499;-66
2021/12/17 07:11:19;;;;;;;2.95;1.73;;;;;;;;;;4958307;28;20423;-66
2021/12/17 07:17:38;;;;;;;5.07;1.95;;;;;;;;;;4972466;28;20422;-66
2021/12/17 07:22:00;;;;;;;8.10;2.25;;;;;;;;;;4972882;28;20388;-65
2021/12/17 07:40:07;;;;;;;5.43;1.80;;;;;;;;;;4972932;28;20448;-66
2021/12/17 07:42:33;;;;;;;4.35;2.13;;;;;;;;;;4971137;28;20364;-65
2021/12/17 07:44:58;;;;;;;3.83;1.40;;;;;;;;;;4973421;28;20053;-65
2021/12/17 07:47:24;;;;;;;4.10;1.92;;;;;;;;;;4971880;28;20459;-66
2021/12/17 07:49:50;;;;;;;7.57;1.90;;;;;;;;;;4972150;28;20499;-66
2021/12/17 07:52:15;;;;;;;5.07;1.40;;;;;;;;;;4972691;28;20145;-67
2021/12/17 07:54:40;;;;;;;4.82;1.73;;;;;;;;;;4970512;28;20387;-66
2021/12/17 07:57:06;;;;;;;3.20;2.03;;;;;;;;;;4971881;28;20448;-66
2021/12/17 07:59:31;;;;;;;2.10;1.20;;;;;;;;;;4971968;28;20372;-65
2021/12/17 08:01:56;;;;;;;3.15;1.45;;;;;;;;;;4971597;28;20112;-66
2021/12/17 08:04:23;;;;;;;2.95;1.90;;;;;;;;;;4953758;28;20455;-65
2021/12/17 08:06:48;;;;;;;9.48;2.13;;;;;;;;;;4970857;28;20383;-66
2021/12/17 08:09:13;;;;;;;7.43;2.05;;;;;;;;;;4975204;28;20482;-65
2021/12/17 08:11:40;;;;;;;13.73;2.20;;;;;;;;;;4990377;28;20036;-66
2021/12/17 08:14:10;;;;;;;6.45;2.97;;;;;;;;;;4990864;28;20375;-66
2021/12/17 08:16:44;;;;;;;9.70;2.72;;;;;;;;;;4972495;28;20468;-66
2021/12/17 08:27:47;;;;;;;4.75;2.00;;;;;;;;;;4988169;28;20440;-68
2021/12/17 08:30:19;;;;;;;7.20;2.47;;;;;;;;;;4972738;28;20406;-67
2021/12/17 08:32:42;;;;;;;5.68;2.38;;;;;;;;;;4975523;28;20321;-66
2021/12/17 08:35:08;;;;;;;5.95;2.20;;;;;;;;;;4992553;28;20437;-67
2021/12/17 08:37:34;;;;;;;5.90;2.10;;;;;;;;;;4990692;28;20354;-66
2021/12/17 08:39:59;;;;;;;6.22;2.65;;;;;;;;;;4992037;28;20358;-66
2021/12/17 08:42:26;;;;;;;4.15;2.05;;;;;;;;;;4973313;28;20339;-65
2021/12/17 08:44:51;;;;;;;5.00;2.13;;;;;;;;;;4990986;28;20379;-66
2021/12/17 08:47:16;;;;;;;6.03;2.33;;;;;;;;;;4990204;28;20025;-66
2021/12/17 08:49:43;;;;;;;4.85;1.98;;;;;;;;;;4990479;28;20359;-66
2021/12/17 08:52:09;;;;;;;6.60;2.38;;;;;;;;;;4973018;28;20325;-66
2021/12/17 08:54:35;;;;;;;4.05;1.83;;;;;;;;;;4973018;28;20416;-65
2021/12/17 08:57:01;;;;;;;7.78;2.38;;;;;;;;;;4990764;28;20486;-66
2021/12/17 08:59:29;;;;;;;8.02;2.35;;;;;;;;;;4990358;28;20482;-66
2021/12/17 09:01:54;;;;;;;5.45;2.50;;;;;;;;;;4989865;28;20438;-66
2021/12/17 09:04:19;;;;;;;7.07;2.35;;;;;;;;;;4972561;28;20127;-66
2021/12/17 09:06:45;;;;;;;5.40;2.83;;;;;;;;;;4990351;28;20087;-66
2021/12/17 09:09:10;;;;;;;8.10;2.58;;;;;;;;;;4990259;28;20456;-66
2021/12/17 09:11:36;;;;;;;5.63;2.30;;;;;;;;;;4990439;28;20024;-66
2021/12/17 09:14:04;;;;;;;3.97;2.22;;;;;;;;;;4990089;28;20570;-66
2021/12/17 09:16:30;;;;;;;8.20;2.50;;;;;;;;;;4972254;28;20439;-67
2021/12/17 09:18:56;;;;;;;4.85;2.20;;;;;;;;;;4972263;28;20171;-66
2021/12/17 09:21:22;;;;;;;3.83;1.83;;;;;;;;;;4990118;28;20095;-66
2021/12/17 09:23:47;;;;;;;11.93;3.22;;;;;;;;;;4990054;28;20427;-66
2021/12/17 09:26:14;;;;;;;7.50;2.17;;;;;;;;;;4972477;28;20167;-66
2021/12/17 09:28:40;;;;;;;7.70;2.33;;;;;;;;;;4990001;28;20431;-66
2021/12/17 09:31:11;;;;;;;6.57;2.30;;;;;;;;;;4990586;28;20408;-66
2021/12/17 09:33:40;;;;;;;6.13;2.10;;;;;;;;;;4971545;28;20367;-67
2021/12/17 09:36:05;;;;;;;5.18;2.60;;;;;;;;;;4972175;28;20515;-65
2021/12/17 09:38:30;;;;;;;4.40;2.13;;;;;;;;;;4971842;28;20428;-67
2021/12/17 09:40:56;;;;;;;6.45;2.67;;;;;;;;;;4989441;28;20029;-65
2021/12/17 09:43:22;;;;;;;6.95;2.33;;;;;;;;;;4991423;28;20161;-66
2021/12/17 09:45:47;;;;;;;6.78;1.85;;;;;;;;;;4972233;28;20344;-66
2021/12/17 09:48:13;;;;;;;8.73;2.83;;;;;;;;;;4989079;28;20614;-66
2021/12/17 09:50:39;;;;;;;5.28;2.00;;;;;;;;;;4971054;28;20411;-65
2021/12/17 09:53:04;;;;;;;7.82;2.63;;;;;;;;;;4971334;28;20430;-66
2021/12/17 09:55:30;;;;;;;9.77;2.50;;;;;;;;;;4971582;28;20379;-65
2021/12/17 09:57:55;;;;;;;5.85;2.53;;;;;;;;;;4989314;28;20509;-66
2021/12/17 10:00:23;;;;;;;5.25;1.98;;;;;;;;;;4989275;28;20511;-66
2021/12/17 10:02:49;;;;;;;6.47;2.47;;;;;;;;;;4971487;28;20333;-66
2021/12/17 10:05:21;;;;;;;8.25;2.42;;;;;;;;;;4989147;28;20329;-66
2021/12/17 10:08:03;;;;;;;3.50;2.10;;;;;;;;;;4971347;28;20443;-66
2021/12/17 10:10:46;;;;;;;6.47;2.60;;;;;;;;;;4990543;28;20427;-66
2021/12/17 10:13:19;;;;;;;5.82;2.53;;;;;;;;;;4989226;28;20020;-65
2021/12/17 10:15:49;;;;;;;4.25;2.47;;;;;;;;;;4989835;28;20051;-66
2021/12/17 10:18:15;;;;;;;6.88;2.50;;;;;;;;;;4971447;28;20049;-66
2021/12/17 10:20:56;;;;;;;6.35;2.08;;;;;;;;;;4989226;28;20456;-66
2021/12/17 10:23:24;;;;;;;5.88;2.30;;;;;;;;;;4971056;28;20382;-68
2021/12/17 10:25:50;;;;;;;6.28;2.58;;;;;;;;;;4971823;28;20428;-65
2021/12/17 10:28:16;;;;;;;5.10;2.33;;;;;;;;;;4971026;28;20428;-67
2021/12/17 10:30:44;;;;;;;5.88;2.38;;;;;;;;;;4989158;28;20432;-65
2021/12/17 10:33:13;;;;;;;9.60;2.35;;;;;;;;;;4971189;28;20443;-68
2021/12/17 10:35:43;;;;;;;4.30;2.15;;;;;;;;;;4970914;28;20371;-66
2021/12/17 10:38:11;;;;;;;3.88;1.90;;;;;;;;;;4988859;28;20390;-66
2021/12/17 10:40:48;;;;;;;6.68;2.67;;;;;;;;;;4988833;28;20102;-67
2021/12/17 10:43:21;;;;;;;7.45;2.45;;;;;;;;;;4989780;28;20047;-66
2021/12/17 10:48:33;;;;;;;5.13;1.83;;;;;;;;;;4992342;28;20029;-66
2021/12/17 10:51:07;;;;;;;4.93;2.03;;;;;;;;;;4993360;28;20505;-66
2021/12/17 10:53:33;;;;;;;4.47;2.08;;;;;;;;;;4992664;28;20336;-65
2021/12/17 10:55:59;;;;;;;6.10;2.28;;;;;;;;;;4993718;28;20319;-66
2021/12/17 10:58:25;;;;;;;4.38;2.55;;;;;;;;;;4992939;28;20359;-65
2021/12/17 11:00:58;;;;;;;3.88;2.17;;;;;;;;;;4992934;28;20355;-66
2021/12/17 11:03:24;;;;;;;4.70;2.20;;;;;;;;;;4958419;28;20387;-66
2021/12/17 11:05:49;;;;;;;5.13;2.10;;;;;;;;;;4975602;28;20356;-66
2021/12/17 11:08:30;;;;;;;8.32;2.38;;;;;;;;;;4974898;28;20118;-66
2021/12/17 11:11:09;;;;;;;4.00;2.13;;;;;;;;;;4975221;28;20439;-65
2021/12/17 11:14:00;;;;;;;3.95;2.13;;;;;;;;;;4994428;28;20416;-67
2021/12/17 11:16:30;;;;;;;6.95;2.42;;;;;;;;;;4974935;28;20511;-66
2021/12/17 11:18:56;;;;;;;6.40;2.17;;;;;;;;;;4974979;28;20436;-65
2021/12/17 11:21:22;;;;;;;4.72;1.90;;;;;;;;;;4993304;28;20523;-67
2021/12/17 11:23:47;;;;;;;5.40;2.08;;;;;;;;;;4974189;28;20439;-66
2021/12/17 11:26:13;;;;;;;5.18;2.05;;;;;;;;;;4974128;28;20439;-66
2021/12/17 11:28:39;;;;;;;5.75;2.65;;;;;;;;;;4992592;28;20447;-66
2021/12/17 11:31:04;;;;;;;4.70;2.17;;;;;;;;;;4973879;28;20318;-66
2021/12/17 11:33:30;;;;;;;4.50;2.20;;;;;;;;;;4991925;28;20486;-66
2021/12/17 11:35:56;;;;;;;7.57;2.83;;;;;;;;;;4992526;28;20395;-65
2021/12/17 11:38:36;;;;;;;6.95;2.95;;;;;;;;;;4991933;28;20319;-66
2021/12/17 11:41:18;;;;;;;5.70;2.03;;;;;;;;;;4973878;28;20074;-67
2021/12/17 11:43:59;;;;;;;6.05;2.63;;;;;;;;;;4991270;28;20179;-66
2021/12/17 11:46:26;;;;;;;6.40;2.53;;;;;;;;;;4974091;28;20052;-65
2021/12/17 11:49:02;;;;;;;6.28;3.00;;;;;;;;;;4992613;28;20399;-65
2021/12/17 11:51:32;;;;;;;4.68;1.92;;;;;;;;;;4991677;28;20333;-66
2021/12/17 11:54:06;;;;;;;6.05;2.25;;;;;;;;;;4991742;28;20024;-66
2021/12/17 11:56:47;;;;;;;5.03;2.47;;;;;;;;;;4990503;28;20032;-65
2021/12/17 11:59:34;;;;;;;5.78;2.22;;;;;;;;;;4992429;28;20438;-67
2021/12/17 12:02:11;;;;;;;6.03;2.25;;;;;;;;;;4991716;28;20436;-66
2021/12/17 12:04:40;;;;;;;4.38;2.55;;;;;;;;;;4973202;28;20325;-66
2021/12/17 12:07:28;;;;;;;6.40;1.90;;;;;;;;;;4973346;28;20037;-66
2021/12/17 12:10:13;;;;;;;4.68;2.47;;;;;;;;;;4990481;28;20343;-65
2021/12/17 12:12:38;;;;;;;5.35;2.50;;;;;;;;;;4991663;28;20428;-65
2021/12/17 12:15:24;;;;;;;7.97;1.60;;;;;;;;;;4991834;28;20428;-66
2021/12/17 12:18:06;;;;;;;11.68;2.22;;;;;;;;;;4991269;28;20324;-66
2021/12/17 12:20:50;;;;;;;4.55;1.98;;;;;;;;;;4991405;28;20420;-66
2021/12/17 12:23:22;;;;;;;5.05;2.28;;;;;;;;;;4990696;28;20511;-66
2021/12/17 12:26:07;;;;;;;7.60;3.28;;;;;;;;;;4991065;28;20444;-65
2021/12/17 12:28:45;;;;;;;6.18;2.47;;;;;;;;;;4990775;28;20056;-65
2021/12/17 12:31:32;;;;;;;5.18;1.98;;;;;;;;;;4990901;28;20301;-66
2021/12/17 12:34:00;;;;;;;3.75;1.85;;;;;;;;;;4991032;28;20052;-65
2021/12/17 12:36:44;;;;;;;7.30;2.33;;;;;;;;;;4972635;28;20349;-65
2021/12/17 12:39:32;;;;;;;5.90;2.40;;;;;;;;;;4991088;28;20021;-66
2021/12/17 12:42:00;;;;;;;6.30;2.22;;;;;;;;;;4990969;28;20345;-66
2021/12/17 12:44:44;;;;;;;5.03;1.83;;;;;;;;;;4990806;28;20420;-65
2021/12/17 12:47:10;;;;;;;4.38;2.20;;;;;;;;;;4990646;28;20384;-66
2021/12/17 12:49:45;;;;;;;7.20;2.30;;;;;;;;;;4991347;28;20424;-66
2021/12/17 12:52:33;;;;;;;5.43;2.20;;;;;;;;;;4990566;28;20375;-66
2021/12/17 12:55:00;;;;;;;5.30;1.92;;;;;;;;;;4990861;28;20105;-65
2021/12/17 12:57:33;;;;;;;5.22;2.28;;;;;;;;;;4972067;28;20340;-68
2021/12/17 13:00:05;;;;;;;3.83;2.03;;;;;;;;;;4990349;28;20079;-66
2021/12/17 13:02:30;;;;;;;6.63;2.55;;;;;;;;;;4990365;28;20534;-66
2021/12/17 13:04:58;;;;;;;5.15;2.33;;;;;;;;;;4991502;28;20332;-67
2021/12/17 13:07:35;;;;;;;6.95;2.90;;;;;;;;;;4971421;28;20446;-66
2021/12/17 13:10:26;;;;;;;9.02;2.35;;;;;;;;;;4972530;28;20336;-70
2021/12/17 13:16:19;;;;;;;7.53;2.63;;;;;;;;;;4990269;28;20436;-66
2021/12/17 13:21:36;;;;;;;9.40;3.20;;;;;;;;;;4975374;28;20529;-66
2021/12/17 13:24:15;;;;;;;4.60;2.17;;;;;;;;;;4989212;28;20472;-67
2021/12/17 13:26:44;;;;;;;9.30;4.13;;;;;;;;;;4973547;28;20410;-65
2021/12/17 13:29:13;;;;;;;8.25;2.72;;;;;;;;;;4989909;28;20072;-66
2021/12/17 13:31:42;;;;;;;8.43;3.05;;;;;;;;;;4989587;28;20025;-65
2021/12/17 13:34:11;;;;;;;11.00;3.13;;;;;;;;;;4989178;28;20356;-66
2021/12/17 13:36:37;;;;;;;10.13;2.67;;;;;;;;;;4989597;28;20491;-66
2021/12/17 13:39:04;;;;;;;3.85;2.22;;;;;;;;;;4971283;28;20495;-66
2021/12/17 13:41:44;;;;;;;8.18;2.55;;;;;;;;;;4968739;28;20502;-65
2021/12/17 13:44:24;;;;;;;7.22;3.58;;;;;;;;;;4987265;28;20454;-66
2021/12/17 13:46:50;;;;;;;10.07;2.65;;;;;;;;;;4970836;28;20352;-65
2021/12/17 13:49:15;;;;;;;4.38;2.20;;;;;;;;;;4971554;28;20348;-66
2021/12/17 13:51:41;;;;;;;10.75;2.78;;;;;;;;;;5004286;28;20375;-66
2021/12/17 13:54:07;;;;;;;7.57;2.40;;;;;;;;;;4990193;28;20375;-65
2021/12/17 13:56:32;;;;;;;5.85;2.85;;;;;;;;;;4990732;28;20404;-66
2021/12/17 13:59:02;;;;;;;6.88;2.80;;;;;;;;;;4989532;28;20033;-66
2021/12/17 14:01:27;;;;;;;7.50;2.88;;;;;;;;;;4971395;28;20493;-66
2021/12/17 14:03:53;;;;;;;6.18;2.47;;;;;;;;;;4989027;28;20448;-65
2021/12/17 14:06:22;;;;;;;4.43;2.15;;;;;;;;;;4988964;28;20048;-66
2021/12/17 14:08:48;;;;;;;9.23;3.33;;;;;;;;;;4971190;28;20333;-65
2021/12/17 14:11:30;;;;;;;6.75;2.92;;;;;;;;;;4989674;28;20331;-66
2021/12/17 14:13:56;;;;;;;7.25;2.90;;;;;;;;;;4989341;28;20332;-66
2021/12/17 14:16:29;;;;;;;6.38;2.65;;;;;;;;;;4988747;28;20443;-66
2021/12/17 14:18:59;;;;;;;11.05;2.47;;;;;;;;;;4971153;28;20386;-66
2021/12/17 14:21:30;;;;;;;8.57;3.17;;;;;;;;;;5004329;28;20538;-66
2021/12/17 14:23:56;;;;;;;10.52;2.83;;;;;;;;;;4989021;28;20448;-66
2021/12/17 14:26:29;;;;;;;11.32;3.03;;;;;;;;;;4990810;28;20426;-65
2021/12/17 14:28:55;;;;;;;4.22;2.35;;;;;;;;;;4989089;28;20570;-66
2021/12/17 14:31:23;;;;;;;7.45;3.33;;;;;;;;;;5003531;28;20333;-65
2021/12/17 14:33:57;;;;;;;7.55;2.47;;;;;;;;;;4989378;28;20082;-66
2021/12/17 14:36:27;;;;;;;7.82;3.25;;;;;;;;;;4988606;28;20439;-66
2021/12/17 14:39:05;;;;;;;7.88;2.95;;;;;;;;;;4988729;28;20136;-65
2021/12/17 14:41:46;;;;;;;8.98;3.85;;;;;;;;;;4971154;28;20444;-66
2021/12/17 14:47:07;;;;;;;9.02;3.67;;;;;;;;;;4988322;28;20352;-67
2021/12/17 14:58:58;;;;;;;8.55;3.35;;;;;;;;;;5003024;28;20451;-66
2021/12/17 15:01:10;;;;;;;8.93;3.03;;;;;;;;;;4973946;28;20107;-66
2021/12/17 15:03:41;;;;;;;8.20;3.47;;;;;;;;;;4988661;28;20037;-66
2021/12/17 15:06:12;;;;;;;8.88;2.63;;;;;;;;;;4988153;28;20403;-65
2021/12/17 15:08:38;;;;;;;6.47;2.80;;;;;;;;;;4970579;28;20404;-65
2021/12/17 15:11:14;;;;;;;8.40;3.75;;;;;;;;;;5003407;28;20335;-66
2021/12/17 15:13:40;;;;;;;7.20;3.45;;;;;;;;;;4971976;28;20056;-65
2021/12/17 15:16:05;;;;;;;6.60;3.33;;;;;;;;;;4971061;28;20436;-65
2021/12/17 15:18:31;;;;;;;6.60;3.42;;;;;;;;;;4988209;28;20097;-65
2021/12/17 15:20:59;;;;;;;6.47;3.13;;;;;;;;;;4970269;28;20524;-65
2021/12/17 15:23:25;;;;;;;8.18;3.10;;;;;;;;;;4971045;28;20444;-65
2021/12/17 15:25:51;;;;;;;8.35;2.92;;;;;;;;;;4986856;28;20329;-65
2021/12/17 15:28:21;;;;;;;6.63;3.08;;;;;;;;;;5003520;28;20059;-66
2021/12/17 15:30:49;;;;;;;5.50;3.38;;;;;;;;;;4991815;28;20525;-66
2021/12/17 15:33:15;;;;;;;6.90;3.38;;;;;;;;;;5007210;28;20389;-66
2021/12/17 15:35:42;;;;;;;8.32;3.38;;;;;;;;;;4992065;28;20028;-65
2021/12/17 15:38:08;;;;;;;8.52;3.88;;;;;;;;;;4973923;28;20321;-67
2021/12/17 15:40:44;;;;;;;9.23;3.83;;;;;;;;;;5007524;28;20332;-65
2021/12/17 15:43:10;;;;;;;7.32;3.90;;;;;;;;;;4992013;28;20079;-65
2021/12/17 15:45:38;;;;;;;7.25;3.38;;;;;;;;;;4992721;28;20459;-66
2021/12/17 15:48:04;;;;;;;9.40;3.63;;;;;;;;;;4991750;28;20411;-65
2021/12/17 15:50:30;;;;;;;9.20;3.83;;;;;;;;;;4973447;28;20468;-65
2021/12/17 15:52:55;;;;;;;8.75;3.70;;;;;;;;;;5006437;28;20503;-65
2021/12/17 15:55:23;;;;;;;12.63;4.53;;;;;;;;;;4957554;28;20332;-65
2021/12/17 15:57:49;;;;;;;12.27;3.70;;;;;;;;;;5006353;28;20047;-65
2021/12/17 16:00:16;;;;;;;9.85;3.60;;;;;;;;;;4991675;28;20444;-65
2021/12/17 16:02:43;;;;;;;7.78;3.50;;;;;;;;;;4973790;28;20055;-65
2021/12/17 16:05:10;;;;;;;6.88;3.05;;;;;;;;;;4973396;28;20351;-66
2021/12/17 16:07:36;;;;;;;5.72;3.17;;;;;;;;;;4990837;28;20494;-65
2021/12/17 16:21:03;;;;;;;9.13;4.05;;;;;;;;;;4992659;28;20367;-66
2021/12/17 16:23:34;;;;;;;9.05;4.00;;;;;;;;;;4974049;28;20095;-66
2021/12/17 16:26:00;;;;;;;9.02;4.95;;;;;;;;;;4973306;28;20064;-66
2021/12/17 16:28:28;;;;;;;9.88;3.67;;;;;;;;;;4973418;28;20432;-66
2021/12/17 16:31:05;;;;;;;9.27;3.75;;;;;;;;;;4973262;28;20435;-66
2021/12/17 16:33:31;;;;;;;8.90;3.85;;;;;;;;;;4972892;28;20363;-65
2021/12/17 16:36:00;;;;;;;10.05;3.95;;;;;;;;;;4991205;28;20056;-65
2021/12/17 16:38:26;;;;;;;10.98;4.05;;;;;;;;;;4990988;28;20353;-65
2021/12/17 16:40:52;;;;;;;11.85;3.92;;;;;;;;;;4972538;28;20408;-67
2021/12/17 16:43:17;;;;;;;9.43;4.00;;;;;;;;;;4990921;28;20423;-65
2021/12/17 16:45:52;;;;;;;10.00;4.20;;;;;;;;;;4990719;28;20436;-65
2021/12/17 16:48:20;;;;;;;9.80;4.60;;;;;;;;;;4990339;28;20060;-66
2021/12/17 16:50:46;;;;;;;9.53;4.10;;;;;;;;;;4990632;28;20090;-65
2021/12/17 16:53:11;;;;;;;9.55;4.03;;;;;;;;;;4990774;28;20436;-66
2021/12/17 16:55:37;;;;;;;9.82;4.20;;;;;;;;;;4990401;28;20318;-65
2021/12/17 16:58:03;;;;;;;11.23;5.10;;;;;;;;;;4990098;28;20126;-65
2021/12/17 17:00:28;;;;;;;8.68;4.45;;;;;;;;;;4990700;28;20584;-66
2021/12/17 17:02:53;;;;;;;9.43;4.32;;;;;;;;;;4989949;28;20420;-66
2021/12/17 17:05:20;;;;;;;9.40;4.20;;;;;;;;;;4990324;28;20329;-65
2021/12/17 17:07:45;;;;;;;9.82;4.20;;;;;;;;;;4989541;28;20480;-67
2021/12/17 17:10:13;;;;;;;7.65;4.05;;;;;;;;;;4990356;28;20354;-65
2021/12/17 17:12:39;;;;;;;11.38;4.75;;;;;;;;;;4989878;28;20363;-65
2021/12/17 17:15:05;;;;;;;9.15;4.20;;;;;;;;;;4990237;28;20335;-66
2021/12/17 17:17:30;;;;;;;7.78;3.67;;;;;;;;;;4989720;28;20474;-65
2021/12/17 17:19:56;;;;;;;9.73;4.80;;;;;;;;;;4990161;28;20440;-65
2021/12/17 17:22:21;;;;;;;12.68;3.75;;;;;;;;;;4989623;28;20428;-66
2021/12/17 17:24:46;;;;;;;7.80;3.88;;;;;;;;;;4990189;28;20051;-66
2021/12/17 17:27:12;;;;;;;8.95;3.97;;;;;;;;;;4989989;28;20128;-65
2021/12/17 17:29:38;;;;;;;11.65;4.55;;;;;;;;;;4989982;28;20442;-65
2021/12/17 17:32:04;;;;;;;11.55;4.38;;;;;;;;;;4991919;28;20347;-66
2021/12/17 17:34:29;;;;;;;7.00;3.90;;;;;;;;;;4989542;28;20490;-66
2021/12/17 17:36:55;;;;;;;11.02;4.38;;;;;;;;;;4989658;28;20499;-66
2021/12/17 17:39:20;;;;;;;9.55;4.10;;;;;;;;;;4990777;28;20370;-66
2021/12/17 17:41:47;;;;;;;6.35;3.58;;;;;;;;;;4989758;28;20474;-67
2021/12/17 17:44:12;;;;;;;11.50;4.30;;;;;;;;;;4971760;28;20432;-66
2021/12/17 17:46:38;;;;;;;10.15;4.10;;;;;;;;;;4971823;28;20440;-65
2021/12/17 17:49:04;;;;;;;10.27;3.97;;;;;;;;;;4971545;28;20051;-65
2021/12/17 17:51:29;;;;;;;9.88;4.15;;;;;;;;;;4971150;28;20438;-65
2021/12/17 17:53:54;;;;;;;12.93;4.75;;;;;;;;;;4970262;28;20455;-66
2021/12/17 17:56:20;;;;;;;11.00;5.05;;;;;;;;;;4989650;28;20538;-65
2021/12/17 17:58:46;;;;;;;10.95;4.60;;;;;;;;;;5004644;28;20029;-66